Genius — 2CPA7 — position and weather

sailwx.info

Track history (hours):
 
Tides and Currents Weather Stations Pressure Air Temp Water Temp Dewpoint Dewpoint Depression Visibility Wind Speed Wind Dir Waves Ship Positions

Genius

Last reported at 2015-Apr-28 12:08 UTC. Time now 2015-Apr-28 14:32 UTC.
Position N 35°29' E 119°51'.

Length 288 m; draft 17.7 m.

Type: Cargo ship. MMSI: 235074615.

Date/timePositionNaut miles runAvg speedWind from/ knotsBaromVisibWave heightAir tempDewpointWater temp
2015-Apr-28 12:08N 35°29' E 119°51'0 0.0
2015-Apr-28 10:20N 35°29' E 119°51'0 0.0
2015-Apr-28 01:20N 35°29' E 119°51'0 0.1
2015-Apr-28 00:08N 35°29' E 119°51'0 0.0
2015-Apr-27 22:14N 35°29' E 119°51'0 0.0
2015-Apr-27 21:08N 35°29' E 119°51'2 0.6
2015-Apr-27 17:18N 35°27' E 119°50'7 9.8
2015-Apr-27 16:33N 35°21' E 119°55'21310.1
2015-Apr-26 19:24N 33°56' E 123°53'2010.7
2015-Apr-26 17:32N 33°38' E 124°03'1010.2
2015-Apr-26 16:34N 33°28' E 124°02'1510.3
2015-Apr-26 15:08N 33°14' E 124°08'13710.7
2015-Apr-26 02:19N 31°02' E 124°48'3510.6
2015-Apr-25 23:03N 30°27' E 124°47'910.5
2015-Apr-25 22:12N 30°18' E 124°48'911.0
2015-Apr-25 21:25N 30°09' E 124°47'1011.2
2015-Apr-25 20:30N 29°59' E 124°46'1111.2
2015-Apr-25 19:32N 29°50' E 124°41'1411.2
2015-Apr-25 18:19N 29°37' E 124°35'1011.2
2015-Apr-25 17:27N 29°28' E 124°30'1011.2
2015-Apr-25 16:33N 29°19' E 124°26'  
Track history (hours):
 
Tides and Currents Weather Stations Pressure Air Temp Water Temp Dewpoint Dewpoint Depression Visibility Wind Speed Wind Dir Waves Ship Positions

Genius

Last reported at 2015-Apr-28 12:08 UTC. Time now 2015-Apr-28 14:32 UTC.
Position N 35°29' E 119°51'.

Length 288 m; draft 17.7 m.

Type: Cargo ship. MMSI: 235074615.

Date/timePositionNaut miles runAvg speedWind from/ knotsBaromVisibWave heightAir tempDewpointWater temp
2015-Apr-28 12:08N 35°29' E 119°51'0 0.0
2015-Apr-28 10:20N 35°29' E 119°51'0 0.0
2015-Apr-28 01:20N 35°29' E 119°51'0 0.1
2015-Apr-28 00:08N 35°29' E 119°51'0 0.0
2015-Apr-27 22:14N 35°29' E 119°51'0 0.0
2015-Apr-27 21:08N 35°29' E 119°51'2 0.6
2015-Apr-27 17:18N 35°27' E 119°50'7 9.8
2015-Apr-27 16:33N 35°21' E 119°55'21310.1
2015-Apr-26 19:24N 33°56' E 123°53'2010.7
2015-Apr-26 17:32N 33°38' E 124°03'1010.2
2015-Apr-26 16:34N 33°28' E 124°02'1510.3
2015-Apr-26 15:08N 33°14' E 124°08'13710.7
2015-Apr-26 02:19N 31°02' E 124°48'3510.6
2015-Apr-25 23:03N 30°27' E 124°47'910.5
2015-Apr-25 22:12N 30°18' E 124°48'911.0
2015-Apr-25 21:25N 30°09' E 124°47'1011.2
2015-Apr-25 20:30N 29°59' E 124°46'1111.2
2015-Apr-25 19:32N 29°50' E 124°41'1411.2
2015-Apr-25 18:19N 29°37' E 124°35'1011.2
2015-Apr-25 17:27N 29°28' E 124°30'1011.2
2015-Apr-25 16:33N 29°19' E 124°26'  

Dump ship's entire track history